createdAt,value
2018-04-02T00:01:35.162Z,78.17
2018-04-02T00:04:04.880Z,78.29
2018-04-02T00:06:35.011Z,78.47
2018-04-02T00:09:03.367Z,78.29
2018-04-02T00:11:33.477Z,78.22
2018-04-02T00:14:01.898Z,78.25
2018-04-02T00:16:30.288Z,78.07
2018-04-02T00:18:59.909Z,77.94
2018-04-02T00:21:29.244Z,77.75
2018-04-02T00:23:58.424Z,77.41
2018-04-02T00:26:27.237Z,77.58
2018-04-02T00:28:55.618Z,77.74
2018-04-02T00:31:25.116Z,77.41
2018-04-02T00:33:53.889Z,77.73
2018-04-02T00:36:23.464Z,78.95
2018-04-02T00:38:53.676Z,79.13
2018-04-02T00:41:22.006Z,80.55
2018-04-02T00:43:51.196Z,80.07
2018-04-02T00:46:19.565Z,80.27
2018-04-02T00:48:48.415Z,80.04
2018-04-02T00:51:19.554Z,80.14
2018-04-02T00:53:47.913Z,80.41
2018-04-02T00:56:17.062Z,80.48
2018-04-02T00:58:46.849Z,80.43
2018-04-02T01:01:15.319Z,79.90
2018-04-02T01:03:45.515Z,79.94
2018-04-02T01:06:15.265Z,80.13
2018-04-02T01:08:45.124Z,80.25
2018-04-02T01:11:14.273Z,80.81
2018-04-02T01:13:43.029Z,81.11
2018-04-02T01:16:12.333Z,81.06
2018-04-02T01:18:40.925Z,80.68
2018-04-02T01:21:10.794Z,80.60
2018-04-02T01:23:39.110Z,80.91
2018-04-02T01:26:08.951Z,81.23
2018-04-02T01:28:37.609Z,81.64
2018-04-02T01:31:07.111Z,82.03
2018-04-02T01:33:35.469Z,81.85
2018-04-02T01:36:05.022Z,81.84
2018-04-02T01:38:34.143Z,82.30
2018-04-02T01:41:02.871Z,82.74
2018-04-02T01:43:31.513Z,82.41
2018-04-02T01:45:59.905Z,81.91
2018-04-02T01:48:28.720Z,81.67
2018-04-02T01:50:58.201Z,81.26
2018-04-02T01:53:27.357Z,81.44
2018-04-02T01:55:57.086Z,81.56
2018-04-02T01:58:25.550Z,81.75
2018-04-02T02:00:54.637Z,81.55
2018-04-02T02:03:24.895Z,81.41
2018-04-02T02:05:53.291Z,81.35
2018-04-02T02:08:23.444Z,80.61
2018-04-02T02:10:51.867Z,79.92
2018-04-02T02:13:20.399Z,79.95
2018-04-02T02:15:48.734Z,79.54
2018-04-02T02:18:18.377Z,79.31
2018-04-02T02:20:46.720Z,79.24
2018-04-02T02:23:15.042Z,79.21
2018-04-02T02:25:43.412Z,79.38
2018-04-02T02:28:12.439Z,79.19
2018-04-02T02:30:41.897Z,79.29
2018-04-02T02:33:11.202Z,79.32
2018-04-02T02:35:40.572Z,79.04
2018-04-02T02:38:09.392Z,78.90
2018-04-02T02:40:38.744Z,78.90
2018-04-02T02:43:07.073Z,78.66
2018-04-02T02:45:35.590Z,78.53
2018-04-02T02:48:05.606Z,78.74
2018-04-02T02:50:33.976Z,79.00
2018-04-02T02:53:04.537Z,79.20
2018-04-02T02:55:32.913Z,79.27
2018-04-02T02:58:01.897Z,79.17
2018-04-02T03:00:30.283Z,78.56
2018-04-02T03:02:58.790Z,79.11
2018-04-02T03:05:27.360Z,79.19
2018-04-02T03:07:56.712Z,78.84
2018-04-02T03:10:25.725Z,79.01
2018-04-02T03:12:55.001Z,79.52
2018-04-02T03:15:24.535Z,79.70
2018-04-02T03:17:55.939Z,78.95
2018-04-02T03:20:24.542Z,78.94
2018-04-02T03:22:53.344Z,78.73
2018-04-02T03:25:21.996Z,78.98
2018-04-02T03:27:52.055Z,79.30
2018-04-02T03:30:20.440Z,79.41
2018-04-02T03:32:49.063Z,79.32
2018-04-02T03:35:18.232Z,80.29
2018-04-02T03:37:47.437Z,80.20
2018-04-02T03:40:16.161Z,80.15
2018-04-02T03:42:45.436Z,80.19
2018-04-02T03:45:14.518Z,80.26
2018-04-02T03:47:42.873Z,80.35
2018-04-02T03:50:12.502Z,80.30
2018-04-02T03:52:41.646Z,80.67
2018-04-02T03:55:10.696Z,80.18
2018-04-02T03:57:39.230Z,80.00
2018-04-02T04:00:08.362Z,80.39
2018-04-02T04:02:38.220Z,80.57
2018-04-02T04:05:08.485Z,80.33
2018-04-02T04:07:37.736Z,80.24
2018-04-02T04:10:07.158Z,80.03
2018-04-02T04:12:35.773Z,80.14
2018-04-02T04:15:05.023Z,80.29
2018-04-02T04:17:34.026Z,80.44
2018-04-02T04:20:03.704Z,79.98
2018-04-02T04:22:32.860Z,80.16
2018-04-02T04:25:01.724Z,80.29
2018-04-02T04:27:30.748Z,80.64
2018-04-02T04:30:00.108Z,80.93
2018-04-02T04:32:28.942Z,80.62
2018-04-02T04:34:59.048Z,80.51
2018-04-02T04:37:27.373Z,80.57
2018-04-02T04:39:55.790Z,80.52
2018-04-02T04:42:25.831Z,80.19
2018-04-02T04:44:55.009Z,80.35
2018-04-02T04:47:23.594Z,80.21
2018-04-02T04:49:52.765Z,80.02
2018-04-02T04:52:22.148Z,79.36
2018-04-02T04:54:51.975Z,79.75
2018-04-02T04:57:21.082Z,79.90
2018-04-02T04:59:50.676Z,80.12
2018-04-02T05:02:21.847Z,79.68
2018-04-02T05:04:51.120Z,79.47
2018-04-02T05:07:21.012Z,79.33
2018-04-02T05:09:50.182Z,79.15
2018-04-02T05:12:19.358Z,79.06
2018-04-02T05:14:47.630Z,79.10
2018-04-02T05:17:16.406Z,79.07
2018-04-02T05:19:45.208Z,79.18
2018-04-02T05:22:14.523Z,79.38
2018-04-02T05:24:43.683Z,79.01
2018-04-02T05:27:12.041Z,79.43
2018-04-02T05:29:40.577Z,79.39
2018-04-02T05:32:10.669Z,79.42
2018-04-02T05:34:39.517Z,79.33
2018-04-02T05:37:08.673Z,80.48
2018-04-02T05:39:38.444Z,80.33
2018-04-02T05:42:08.659Z,80.18
2018-04-02T05:44:36.987Z,79.98
2018-04-02T05:47:05.346Z,80.11
2018-04-02T05:49:34.944Z,80.17
2018-04-02T05:52:03.869Z,80.36
2018-04-02T05:54:32.265Z,80.80
2018-04-02T05:57:00.680Z,81.26
2018-04-02T05:59:29.342Z,81.24
2018-04-02T06:01:58.276Z,81.41
2018-04-02T06:04:28.631Z,81.05
2018-04-02T06:06:59.351Z,81.13
2018-04-02T06:09:28.625Z,81.22
2018-04-02T06:11:58.883Z,81.17
2018-04-02T06:14:27.684Z,81.05
2018-04-02T06:16:56.421Z,80.98
2018-04-02T06:19:25.533Z,80.95
2018-04-02T06:21:54.657Z,81.14
2018-04-02T06:24:23.840Z,81.00
2018-04-02T06:26:53.213Z,80.90
2018-04-02T06:29:21.729Z,81.20
2018-04-02T06:31:51.048Z,81.46
2018-04-02T06:34:19.357Z,80.81
2018-04-02T06:36:48.566Z,80.77
2018-04-02T06:39:18.589Z,80.88
2018-04-02T06:41:47.688Z,81.39
2018-04-02T06:44:17.469Z,81.34
2018-04-02T06:46:46.189Z,81.19
2018-04-02T06:49:15.381Z,81.08
2018-04-02T06:51:44.583Z,80.67
2018-04-02T06:54:14.090Z,80.19
2018-04-02T06:56:43.117Z,79.88
2018-04-02T06:59:11.814Z,79.74
2018-04-02T07:01:40.456Z,80.33
2018-04-02T07:04:08.785Z,80.39
2018-04-02T07:06:37.350Z,80.14
2018-04-02T07:09:07.270Z,79.69
2018-04-02T07:11:37.332Z,80.30
2018-04-02T07:14:08.229Z,80.13
2018-04-02T07:16:37.661Z,79.38
2018-04-02T07:19:07.479Z,78.56
2018-04-02T07:21:37.920Z,78.77
2018-04-02T07:24:06.837Z,78.56
2018-04-02T07:26:36.220Z,78.53
2018-04-02T07:29:04.990Z,78.12
2018-04-02T07:31:34.403Z,78.47
2018-04-02T07:34:04.660Z,79.09
2018-04-02T07:36:33.006Z,77.94
2018-04-02T07:39:03.880Z,77.52
2018-04-02T07:41:32.982Z,77.08
2018-04-02T07:44:02.332Z,77.47
2018-04-02T07:46:31.573Z,76.58
2018-04-02T07:49:00.966Z,75.67
2018-04-02T07:51:30.104Z,76.07
2018-04-02T07:53:58.729Z,75.87
2018-04-02T07:56:28.637Z,76.19
2018-04-02T07:58:58.991Z,76.10
2018-04-02T08:01:27.394Z,74.95
2018-04-02T08:03:56.465Z,74.59
2018-04-02T08:06:25.696Z,74.32
2018-04-02T08:08:54.376Z,74.65
2018-04-02T08:11:23.204Z,73.72
2018-04-02T08:13:52.986Z,72.50
2018-04-02T08:16:21.588Z,73.82
2018-04-02T08:18:49.964Z,73.84
2018-04-02T08:21:19.890Z,73.95
2018-04-02T08:23:49.054Z,73.00
2018-04-02T08:26:18.354Z,72.50
2018-04-02T08:28:46.938Z,71.57
2018-04-02T08:31:17.395Z,71.59
2018-04-02T08:33:48.175Z,72.02
2018-04-02T08:36:16.967Z,71.73
2018-04-02T08:38:46.277Z,72.25
2018-04-02T08:41:15.883Z,71.49
2018-04-02T08:43:45.600Z,71.26
2018-04-02T08:46:15.380Z,70.28
2018-04-02T08:48:44.658Z,70.28
2018-04-02T08:51:14.215Z,69.00
2018-04-02T08:53:44.369Z,69.34
2018-04-02T08:56:13.774Z,67.04
2018-04-02T08:58:42.103Z,67.16
2018-04-02T09:01:12.285Z,69.69
2018-04-02T09:03:41.463Z,68.32
2018-04-02T09:06:11.459Z,66.58
2018-04-02T09:08:41.459Z,66.54
2018-04-02T09:11:09.782Z,65.68
2018-04-02T09:13:38.139Z,65.55
2018-04-02T09:16:06.536Z,64.96
2018-04-02T09:18:34.886Z,62.36
2018-04-02T09:21:03.303Z,64.37
2018-04-02T09:23:31.894Z,64.62
2018-04-02T09:26:00.646Z,64.09
2018-04-02T09:28:29.054Z,63.89
2018-04-02T09:30:58.812Z,63.61
2018-04-02T09:33:29.078Z,62.66
2018-04-02T09:35:58.158Z,61.95
2018-04-02T09:38:26.559Z,62.39
2018-04-02T09:40:55.291Z,62.93
2018-04-02T09:43:23.660Z,62.05
2018-04-02T09:45:52.689Z,60.54
2018-04-02T09:48:21.185Z,60.69
2018-04-02T09:50:49.617Z,59.87
2018-04-02T09:53:20.583Z,57.80
2018-04-02T09:55:48.953Z,55.43
2018-04-02T09:58:18.132Z,56.79
2018-04-02T10:00:46.574Z,56.04
2018-04-02T10:03:16.139Z,54.60
2018-04-02T10:05:44.513Z,56.77
2018-04-02T10:08:14.211Z,56.55
2018-04-02T10:10:43.341Z,56.48
2018-04-02T10:13:12.630Z,53.59
2018-04-02T10:15:41.950Z,54.58
2018-04-02T10:18:10.317Z,54.11
2018-04-02T10:20:39.351Z,54.66
2018-04-02T10:23:09.639Z,53.78
2018-04-02T10:25:39.151Z,54.10
2018-04-02T10:28:08.410Z,52.83
2018-04-02T10:30:37.899Z,53.32
2018-04-02T10:33:06.308Z,52.98
2018-04-02T10:35:35.490Z,51.88
2018-04-02T10:38:05.717Z,51.48
2018-04-02T10:40:34.400Z,52.30
2018-04-02T10:43:04.521Z,51.06
2018-04-02T10:45:33.164Z,51.41
2018-04-02T10:48:02.321Z,48.56
2018-04-02T10:50:30.931Z,50.89
2018-04-02T10:53:00.123Z,50.38
2018-04-02T10:55:29.131Z,49.84
2018-04-02T10:58:01.369Z,48.26
2018-04-02T11:00:29.762Z,49.00
2018-04-02T11:02:59.302Z,49.16
2018-04-02T11:05:28.648Z,48.28
2018-04-02T11:07:57.086Z,48.65
2018-04-02T11:10:26.450Z,47.58
2018-04-02T11:12:54.817Z,48.42
2018-04-02T11:15:23.192Z,49.19
2018-04-02T11:17:53.097Z,45.62
2018-04-02T11:20:23.104Z,46.74
2018-04-02T11:22:52.298Z,47.21
2018-04-02T11:25:20.954Z,47.29
2018-04-02T11:27:49.368Z,47.58
2018-04-02T11:30:19.283Z,47.17
2018-04-02T11:32:49.515Z,47.31
2018-04-02T11:35:18.739Z,47.77
2018-04-02T11:37:48.013Z,47.04
2018-04-02T11:40:16.632Z,47.92
2018-04-02T11:42:45.526Z,48.55
2018-04-02T11:45:13.890Z,48.22
2018-04-02T11:47:42.978Z,47.79
2018-04-02T11:50:12.166Z,46.42
2018-04-02T11:52:41.283Z,46.54
2018-04-02T11:55:09.621Z,47.06
2018-04-02T11:57:37.961Z,46.13
2018-04-02T12:00:07.786Z,46.03
2018-04-02T12:02:36.318Z,45.30
2018-04-02T12:05:04.942Z,43.90
2018-04-02T12:07:33.324Z,43.75
2018-04-02T12:10:01.671Z,44.69
2018-04-02T12:12:30.057Z,43.06
2018-04-02T12:14:58.390Z,43.69
2018-04-02T12:17:27.983Z,43.37
2018-04-02T12:19:56.366Z,42.74
2018-04-02T12:22:24.768Z,41.73
2018-04-02T12:24:54.018Z,42.33
2018-04-02T12:27:23.835Z,41.02
2018-04-02T12:29:53.047Z,41.87
2018-04-02T12:32:22.515Z,42.85
2018-04-02T12:34:51.482Z,42.54
2018-04-02T12:37:19.832Z,42.65
2018-04-02T12:39:49.186Z,41.81
2018-04-02T12:42:17.549Z,41.21
2018-04-02T12:44:47.554Z,41.71
2018-04-02T12:47:15.959Z,41.95
2018-04-02T12:49:45.677Z,40.77
2018-04-02T12:52:14.034Z,39.75
2018-04-02T12:54:42.423Z,39.27
2018-04-02T12:57:11.680Z,39.85
2018-04-02T12:59:40.859Z,39.71
2018-04-02T13:02:09.852Z,39.94
2018-04-02T13:04:38.247Z,39.57
2018-04-02T13:07:07.512Z,40.05
2018-04-02T13:09:36.620Z,40.37
2018-04-02T13:12:04.939Z,39.97
2018-04-02T13:14:34.201Z,39.09
2018-04-02T13:17:02.560Z,37.76
2018-04-02T13:19:30.967Z,38.45
2018-04-02T13:21:59.335Z,38.24
2018-04-02T13:24:27.966Z,38.26
2018-04-02T13:26:57.161Z,38.37
2018-04-02T13:29:26.198Z,38.58
2018-04-02T13:31:55.362Z,38.31
2018-04-02T13:34:24.441Z,37.57
2018-04-02T13:36:52.769Z,37.10
2018-04-02T13:39:21.119Z,37.04
2018-04-02T13:41:50.252Z,37.46
2018-04-02T13:44:18.633Z,36.87
2018-04-02T13:46:47.005Z,35.44
2018-04-02T13:49:15.427Z,35.74
2018-04-02T13:51:44.597Z,36.08
2018-04-02T13:54:14.336Z,35.96
2018-04-02T13:56:43.465Z,37.09
2018-04-02T13:59:12.849Z,35.72
2018-04-02T14:01:41.170Z,37.07
2018-04-02T14:04:09.882Z,36.63
2018-04-02T14:06:38.209Z,36.03
2018-04-02T14:09:09.296Z,35.79
2018-04-02T14:11:39.139Z,35.55
2018-04-02T14:14:07.477Z,35.71
2018-04-02T14:16:35.849Z,35.69
2018-04-02T14:19:05.046Z,35.70
2018-04-02T14:21:34.239Z,35.92
2018-04-02T14:24:02.926Z,35.68
2018-04-02T14:26:32.314Z,35.55
2018-04-02T14:29:00.665Z,36.00
2018-04-02T14:31:28.994Z,36.52
2018-04-02T14:33:57.389Z,36.17
2018-04-02T14:36:26.567Z,36.40
2018-04-02T14:38:54.954Z,35.77
2018-04-02T14:41:23.327Z,35.40
2018-04-02T14:43:52.577Z,36.58
2018-04-02T14:46:22.139Z,35.62
2018-04-02T14:48:50.484Z,35.24
2018-04-02T14:51:18.809Z,35.96
2018-04-02T14:53:47.220Z,35.94
2018-04-02T14:56:16.667Z,36.24
2018-04-02T14:58:46.839Z,35.88
2018-04-02T15:01:15.820Z,36.07
2018-04-02T15:03:44.936Z,37.17
2018-04-02T15:06:13.302Z,37.44
2018-04-02T15:08:41.680Z,37.75
2018-04-02T15:11:10.870Z,38.65
2018-04-02T15:13:39.254Z,39.06
2018-04-02T15:16:08.409Z,38.84
2018-04-02T15:18:36.816Z,38.73
2018-04-02T15:21:05.718Z,38.11
2018-04-02T15:23:35.250Z,37.79
2018-04-02T15:26:04.631Z,38.28
2018-04-02T15:28:33.318Z,38.32
2018-04-02T15:31:01.908Z,37.63
2018-04-02T15:33:30.778Z,37.52
2018-04-02T15:35:59.453Z,37.98
2018-04-02T15:38:27.827Z,36.97
2018-04-02T15:40:57.823Z,37.87
2018-04-02T15:43:26.900Z,38.31
2018-04-02T15:45:56.073Z,37.37
2018-04-02T15:48:24.462Z,37.89
2018-04-02T15:50:53.227Z,37.73
2018-04-02T15:53:21.952Z,37.99
2018-04-02T15:55:51.374Z,38.31
2018-04-02T15:58:20.000Z,38.37
2018-04-02T16:00:48.375Z,38.22
2018-04-02T16:03:18.247Z,38.45
2018-04-02T16:05:47.645Z,37.94
2018-04-02T16:08:16.948Z,37.97
2018-04-02T16:10:45.413Z,38.35
2018-04-02T16:13:14.891Z,38.19
2018-04-02T16:15:43.277Z,38.05
2018-04-02T16:18:12.326Z,38.12
2018-04-02T16:20:40.707Z,38.12
2018-04-02T16:23:09.917Z,38.23
2018-04-02T16:25:38.342Z,38.68
2018-04-02T16:28:07.467Z,38.71
2018-04-02T16:30:36.093Z,39.25
2018-04-02T16:33:05.325Z,39.69
2018-04-02T16:35:33.684Z,39.30
2018-04-02T16:38:02.042Z,39.86
2018-04-02T16:40:31.759Z,39.70
2018-04-02T16:43:00.171Z,39.66
2018-04-02T16:45:28.550Z,39.39
2018-04-02T16:47:57.765Z,39.38
2018-04-02T16:53:40.386Z,39.21
2018-04-02T16:56:09.028Z,39.40
2018-04-02T16:58:39.337Z,38.71
2018-04-02T17:01:09.432Z,39.57
2018-04-02T17:03:38.184Z,39.82
2018-04-02T17:06:07.417Z,40.16
2018-04-02T17:08:36.713Z,40.11
2018-04-02T17:11:06.927Z,40.82
2018-04-02T17:13:35.978Z,40.53
2018-04-02T17:16:04.312Z,40.36
2018-04-02T17:18:32.715Z,40.68
2018-04-02T17:21:02.805Z,40.40
2018-04-02T17:23:31.198Z,40.69
2018-04-02T17:26:00.318Z,40.81
2018-04-02T17:28:29.716Z,40.75
2018-04-02T17:30:58.773Z,41.21
2018-04-02T17:33:28.931Z,41.48
2018-04-02T17:35:58.273Z,41.12
2018-04-02T17:38:27.365Z,41.51
2018-04-02T17:40:56.833Z,41.93
2018-04-02T17:43:25.230Z,41.72
2018-04-02T17:45:54.078Z,41.88
2018-04-02T17:48:23.156Z,42.29
2018-04-02T17:50:53.072Z,42.75
2018-04-02T17:53:21.483Z,43.63
2018-04-02T17:55:49.907Z,45.33
2018-04-02T17:58:19.636Z,44.69
2018-04-02T18:00:47.958Z,44.75
2018-04-02T18:03:17.635Z,44.30
2018-04-02T18:05:46.300Z,44.22
2018-04-02T18:08:15.433Z,44.75
2018-04-02T18:10:44.152Z,44.74
2018-04-02T18:13:13.413Z,44.99
2018-04-02T18:15:43.389Z,44.86
2018-04-02T18:18:11.770Z,45.02
2018-04-02T18:20:40.235Z,46.39
2018-04-02T18:23:08.602Z,46.87
2018-04-02T18:25:38.398Z,47.51
2018-04-02T18:28:07.698Z,48.18
2018-04-02T18:30:36.816Z,49.13
2018-04-02T18:33:06.115Z,48.50
2018-04-02T18:35:37.854Z,48.29
2018-04-02T18:38:06.660Z,47.50
2018-04-02T18:40:35.011Z,46.92
2018-04-02T18:43:04.013Z,46.55
2018-04-02T18:45:32.842Z,46.04
2018-04-02T18:48:01.899Z,45.81
2018-04-02T18:50:30.287Z,45.01
2018-04-02T18:52:59.598Z,44.93
2018-04-02T18:55:29.092Z,43.96
2018-04-02T18:57:58.242Z,43.92
2018-04-02T19:00:27.252Z,44.19
2018-04-02T19:02:56.549Z,44.07
2018-04-02T19:05:26.088Z,43.71
2018-04-02T19:07:55.300Z,43.70
2018-04-02T19:10:24.802Z,43.76
2018-04-02T19:12:55.216Z,43.44
2018-04-02T19:15:24.360Z,43.25
2018-04-02T19:17:52.959Z,43.40
2018-04-02T19:20:22.575Z,43.16
2018-04-02T19:22:52.542Z,42.70
2018-04-02T19:25:22.675Z,42.53
2018-04-02T19:27:52.778Z,42.82
2018-04-02T19:30:21.167Z,43.24
2018-04-02T19:32:50.723Z,42.97
2018-04-02T19:35:20.168Z,43.62
2018-04-02T19:37:48.939Z,43.21
2018-04-02T19:40:19.592Z,42.92
2018-04-02T19:42:47.921Z,42.23
2018-04-02T19:45:17.167Z,42.40
2018-04-02T19:47:45.523Z,42.63
2018-04-02T19:50:14.341Z,42.88
2018-04-02T19:52:43.569Z,42.54
2018-04-02T19:55:12.101Z,41.92
2018-04-02T19:57:40.424Z,42.29
2018-04-02T20:00:09.533Z,41.30
2018-04-02T20:02:39.928Z,41.85
2018-04-02T20:05:09.256Z,41.95
2018-04-02T20:07:38.614Z,42.01
2018-04-02T20:10:07.232Z,42.68
2018-04-02T20:12:36.629Z,42.91
2018-04-02T20:15:05.553Z,42.98
2018-04-02T20:17:33.912Z,42.19
2018-04-02T20:20:02.896Z,42.01
2018-04-02T20:22:31.315Z,41.91
2018-04-02T20:25:00.809Z,42.42
2018-04-02T20:27:29.413Z,42.22
2018-04-02T20:29:58.767Z,42.10
2018-04-02T20:32:27.176Z,42.43
2018-04-02T20:34:55.874Z,42.24
2018-04-02T20:37:24.580Z,42.47
2018-04-02T20:39:53.932Z,42.39
2018-04-02T20:42:22.383Z,42.11
2018-04-02T20:44:52.111Z,41.82
2018-04-02T20:47:23.995Z,41.83
2018-04-02T20:49:53.256Z,41.74
2018-04-02T20:52:22.516Z,41.91
2018-04-02T20:54:51.592Z,42.25
2018-04-02T20:57:19.994Z,42.30
2018-04-02T20:59:48.606Z,42.15
2018-04-02T21:02:18.592Z,42.50
2018-04-02T21:04:47.013Z,42.53
2018-04-02T21:07:17.650Z,42.98
2018-04-02T21:09:46.895Z,42.75
2018-04-02T21:12:20.810Z,43.10
2018-04-02T21:14:49.785Z,43.52
2018-04-02T21:17:19.899Z,43.68
2018-04-02T21:19:48.270Z,44.13
2018-04-02T21:22:16.987Z,44.18
2018-04-02T21:24:46.754Z,43.50
2018-04-02T21:27:15.570Z,43.80
2018-04-02T21:29:43.972Z,43.15
2018-04-02T21:32:13.285Z,43.48
2018-04-02T21:34:42.540Z,43.59
2018-04-02T21:37:11.977Z,43.67
2018-04-02T21:39:40.629Z,44.32
2018-04-02T21:42:10.788Z,45.67
2018-04-02T21:44:40.002Z,45.65
2018-04-02T21:47:10.708Z,45.61
2018-04-02T21:49:39.105Z,45.63
2018-04-02T21:52:07.704Z,46.03
2018-04-02T21:54:38.525Z,46.40
2018-04-02T21:57:08.514Z,46.70
2018-04-02T21:59:36.897Z,46.29
2018-04-02T22:02:07.291Z,46.59
2018-04-02T22:04:35.684Z,47.76
2018-04-02T22:07:07.181Z,48.06
2018-04-02T22:09:36.361Z,47.53
2018-04-02T22:12:06.435Z,47.16
2018-04-02T22:14:35.537Z,47.16
2018-04-02T22:17:03.861Z,46.89
2018-04-02T22:19:32.259Z,46.81
2018-04-02T22:22:02.423Z,46.26
2018-04-02T22:24:32.248Z,47.10
2018-04-02T22:27:00.845Z,46.51
2018-04-02T22:29:30.363Z,46.62
2018-04-02T22:31:58.692Z,46.08
2018-04-02T22:34:27.739Z,46.03
2018-04-02T22:36:56.826Z,46.06
2018-04-02T22:39:26.021Z,45.37
2018-04-02T22:41:55.162Z,45.88
2018-04-02T22:44:23.715Z,45.08
2018-04-02T22:46:52.230Z,45.04
2018-04-02T22:49:20.810Z,44.65
2018-04-02T22:51:49.348Z,44.75
2018-04-02T22:54:17.723Z,44.86
2018-04-02T22:56:47.747Z,44.76
2018-04-02T22:59:16.750Z,45.38
2018-04-02T23:01:46.169Z,46.00
2018-04-02T23:04:15.414Z,46.59
2018-04-02T23:06:45.595Z,47.89
2018-04-02T23:09:14.779Z,48.59
2018-04-02T23:11:43.133Z,49.87
2018-04-02T23:14:12.612Z,50.62
2018-04-02T23:16:42.061Z,51.03
2018-04-02T23:19:11.498Z,51.66
2018-04-02T23:21:40.768Z,52.93
2018-04-02T23:24:09.370Z,53.68
2018-04-02T23:26:39.333Z,54.35
2018-04-02T23:29:09.236Z,54.83
2018-04-02T23:31:38.457Z,56.34
2018-04-02T23:34:08.907Z,57.33
2018-04-02T23:36:37.638Z,58.45
2018-04-02T23:39:07.470Z,57.99
2018-04-02T23:41:36.178Z,58.81
2018-04-02T23:44:04.523Z,58.97
2018-04-02T23:46:34.109Z,59.78
2018-04-02T23:49:04.353Z,60.47
2018-04-02T23:51:34.272Z,60.68
2018-04-02T23:54:02.782Z,60.46
2018-04-02T23:56:31.855Z,61.58
2018-04-02T23:59:00.970Z,61.39
